Latest Weather Observations for Gympie

IDQ60901

Issued at 11:41 pm EST Saturday 1 August 2015 (issued every 10 minutes, with the page automatically refreshed every 10 minutes)

About weather observations | Map of Brisbane area stations | Latest observations for Brisbane area | Other Formats
Station Details ID: 040093 Name: GYMPIE Lat: -26.18 Lon: 152.64 Height: 64.5 m
Data from the previous 72 hours. | See also: Recent months at Gympie
Date/Time
EST
Tmp

°C
App
Tmp
°C
Dew
Point
°C
Rel
Hum
%
Delta-T

°C
Wind Press
QNH
hPa
Press
MSL
hPa
Rain
since
9 am
mm
Dir
 
Spd
km/h
Gust
km/h
Spd
kts
Gust
kts
01/11:30pm 8.7 8.1 7.6 93 0.5 CALM 0 0 0 0 1023.9 1023.8 0.0
01/11:00pm 9.5 9.2 8.6 94 0.4 CALM 0 0 0 0 1023.9 1023.8 0.0
01/10:30pm 9.9 9.7 9.0 94 0.4 CALM 0 2 0 1 1023.8 1023.7 0.0
01/10:00pm 10.4 10.3 9.3 93 0.5 CALM 0 0 0 0 1023.6 1023.5 0.0
01/09:30pm 11.1 11.1 9.7 91 0.7 CALM 0 0 0 0 1023.6 1023.5 0.0
01/09:00pm 11.5 11.5 9.8 89 0.9 CALM 0 0 0 0 1023.8 1023.7 0.0
01/08:30pm 12.1 12.2 10.2 88 1.0 CALM 0 0 0 0 1023.3 1023.2 0.0
01/08:00pm 12.8 12.1 10.2 84 1.3 N 4 6 2 3 1022.8 1022.8 0.0
01/07:30pm 14.6 14.7 10.2 75 2.3 CALM 0 0 0 0 1022.7 1022.7 0.0
01/07:00pm 15.9 16.0 10.0 68 3.1 CALM 0 0 0 0 1022.4 1022.4 0.0
01/06:30pm 18.1 17.6 10.7 62 4.0 NE 4 6 2 3 1021.8 1021.8 0.0
01/06:00pm 19.2 18.3 10.7 58 4.6 NE 6 11 3 6 1021.4 1021.4 0.0
01/05:30pm 20.4 19.2 10.2 52 5.5 NE 7 15 4 8 1021.1 1021.1 0.0
01/05:00pm 22.0 21.4 10.5 48 6.3 NE 4 7 2 4 1020.8 1020.8 0.0
01/04:30pm 23.0 22.1 9.4 42 7.4 ENE 4 15 2 8 1020.7 1020.7 0.0
01/04:00pm 23.7 22.4 9.3 40 7.8 N 6 7 3 4 1020.8 1020.8 0.0
01/03:30pm 24.4 23.6 9.6 39 8.1 NNW 4 7 2 4 1020.6 1020.6 0.0
01/03:00pm 24.4 23.5 9.2 38 8.2 NNE 4 7 2 4 1020.7 1020.7 0.0
01/02:30pm 24.2 23.0 9.4 39 8.1 NE 6 11 3 6 1020.7 1020.7 0.0
01/02:00pm 24.3 23.4 10.6 42 7.6 NW 6 13 3 7 1020.6 1020.6 0.0
01/01:30pm 23.8 22.9 10.5 43 7.4 NNE 6 13 3 7 1021.1 1021.1 0.0
01/01:00pm 23.1 22.3 10.9 46 6.8 NW 6 11 3 6 1021.7 1021.7 0.0
01/12:30pm 22.8 22.3 10.9 47 6.6 N 4 9 2 5 1022.1 1022.1 0.0
01/12:00pm 22.0 21.0 10.2 47 6.4 NW 6 11 3 6 1022.8 1022.8 0.0
01/11:30am 21.4 21.0 11.1 52 5.7 NW 4 11 2 6 1023.6 1023.5 0.0
01/11:00am 20.6 20.6 11.2 55 5.2 ENE 2 6 1 3 1024.1 1024.0 0.0
01/10:30am 18.4 18.2 10.3 59 4.3 ESE 2 4 1 2 1024.6 1024.5 0.0
01/10:00am 16.2 15.7 10.7 70 2.9 SSE 4 4 2 2 1024.8 1024.7 0.0
01/09:30am 13.4 13.0 9.8 79 1.9 SSW 2 4 1 2 1025.1 1025.0 0.0
01/09:00am 11.3 11.1 9.0 86 1.1 CALM 0 0 0 0 1025.0 1024.9 0.0
01/08:30am 9.6 9.2 8.2 91 0.7 CALM 0 0 0 0 1024.4 1024.3 0.0
01/08:00am 7.3 6.6 7.0 98 0.1 CALM 0 0 0 0 1024.3 1024.2 0.0
01/07:30am 5.3 4.2 5.2 99 0.0 CALM 0 0 0 0 1023.9 1023.8 0.0
01/07:00am 4.3 3.0 4.0 98 0.1 CALM 0 0 0 0 1023.7 1023.6 0.0
01/06:30am 4.4 3.1 4.0 97 0.2 CALM 0 0 0 0 1023.7 1023.6 0.0
01/06:00am 4.5 3.2 4.2 98 0.1 CALM 0 0 0 0 1023.4 1023.3 0.0
01/05:30am 4.7 3.5 4.4 98 0.1 CALM 0 0 0 0 1023.1 1023.0 0.0
01/05:00am 5.0 3.8 4.6 97 0.2 CALM 0 0 0 0 1022.9 1022.9 0.0
01/04:30am 5.1 3.9 4.7 97 0.2 CALM 0 0 0 0 1022.8 1022.8 0.0
01/04:00am 4.7 3.4 4.1 96 0.3 CALM 0 0 0 0 1022.6 1022.6 0.0
01/03:30am 5.5 4.4 5.2 98 0.1 CALM 0 0 0 0 1022.4 1022.4 0.0
01/03:00am 6.1 5.1 5.7 97 0.2 CALM 0 0 0 0 1022.7 1022.7 0.0
01/02:30am 6.4 5.5 6.0 97 0.2 CALM 0 0 0 0 1022.8 1022.8 0.0
01/02:00am 6.3 5.3 5.7 96 0.3 CALM 0 0 0 0 1022.7 1022.7 0.0
01/01:30am 6.6 5.7 5.9 95 0.3 CALM 0 0 0 0 1022.5 1022.5 0.0
01/01:00am 7.0 6.2 6.3 95 0.3 CALM 0 0 0 0 1022.8 1022.8 0.0
01/12:30am 7.9 7.3 7.5 97 0.2 CALM 0 0 0 0 1023.2 1023.1 0.0
01/12:00am 8.1 7.5 7.3 95 0.4 CALM 0 0 0 0 1023.4 1023.3 0.0
 
Date/Time
EST
Tmp

°C
App
Tmp
°C
Dew
Point
°C
Rel
Hum
%
Delta-T

°C
Wind Press
QNH
hPa
Press
MSL
hPa
Rain
since
9 am
mm
Dir
 
Spd
km/h
Gust
km/h
Spd
kts
Gust
kts
31/11:30pm 8.5 7.9 7.6 94 0.4 CALM 0 0 0 0 1023.3 1023.2 0.0
31/11:00pm 8.9 8.5 8.1 95 0.4 CALM 0 0 0 0 1023.1 1023.0 0.0
31/10:30pm 9.4 9.0 8.2 92 0.6 CALM 0 0 0 0 1023.1 1023.0 0.0
31/10:00pm 9.5 9.0 7.9 90 0.8 CALM 0 0 0 0 1022.9 1022.9 0.0
31/09:30pm 10.5 10.2 8.8 89 0.8 CALM 0 0 0 0 1022.8 1022.8 0.0
31/09:00pm 11.5 11.4 9.4 87 1.1 CALM 0 0 0 0 1022.6 1022.6 0.0
31/08:30pm 12.4 12.3 9.4 82 1.5 CALM 0 2 0 1 1022.3 1022.3 0.0
31/08:00pm 13.0 12.6 9.8 81 1.6 WNW 2 4 1 2 1022.1 1022.1 0.0
31/07:30pm 14.2 14.2 9.8 75 2.3 CALM 0 0 0 0 1021.9 1021.9 0.0
31/07:00pm 16.2 16.4 10.5 69 3.0 CALM 0 2 0 1 1021.5 1021.5 0.0
31/06:30pm 17.6 17.1 10.9 65 3.6 NNE 4 7 2 4 1021.1 1021.1 0.0
31/06:00pm 18.2 17.4 8.2 52 5.1 NE 2 6 1 3 1020.7 1020.7 0.0
31/05:30pm 20.1 18.7 5.4 38 7.3 E 2 2 1 1 1020.4 1020.4 0.0
31/05:00pm 21.9 19.6 4.9 33 8.4 SE 6 7 3 4 1020.3 1020.3 0.0
31/04:30pm 22.9 21.2 5.8 33 8.7 SSE 4 7 2 4 1020.0 1020.0 0.0
31/04:00pm 23.5 21.1 5.4 31 9.1 SSE 7 11 4 6 1020.0 1020.0 0.0
31/03:30pm 24.1 22.3 5.5 30 9.4 S 4 11 2 6 1019.9 1019.9 0.0
31/03:00pm 24.3 22.0 4.6 28 9.8 SW 6 13 3 7 1020.1 1020.1 0.0
31/02:30pm 24.8 22.8 6.1 30 9.6 WSW 6 13 3 7 1020.2 1020.2 0.0
31/02:00pm 24.2 21.9 7.4 34 8.8 NW 9 15 5 8 1020.2 1020.2 0.0
31/01:30pm 23.6 22.2 8.8 39 8.0 WNW 6 13 3 7 1020.7 1020.7 0.0
31/01:00pm 23.4 22.1 9.8 42 7.4 NNW 7 17 4 9 1021.0 1021.0 0.0
31/12:30pm 22.6 21.1 9.0 42 7.3 NW 7 19 4 10 1021.6 1021.6 0.0
31/12:00pm 22.3 21.0 9.8 45 6.8 WNW 7 13 4 7 1022.5 1022.5 0.0
31/11:30am 21.6 22.2 13.2 59 4.8 NNE 2 6 1 3 1023.1 1023.0 0.0
31/11:00am 18.7 19.4 13.3 71 3.1 S 2 4 1 2 1023.9 1023.8 0.0
31/10:30am 15.3 16.0 13.3 88 1.1 SSW 2 4 1 2 1024.4 1024.3 0.0
31/10:00am 12.8 13.2 12.5 98 0.2 S 2 4 1 2 1024.9 1024.8 0.0
31/09:30am 10.6 10.4 10.4 99 0.1 SSE 2 6 1 3 1025.5 1025.5 0.0
31/09:00am 9.4 9.3 9.3 99 0.0 CALM 0 2 0 1 1025.2 1025.1 0.0
31/08:30am 8.8 8.5 8.7 99 0.0 CALM 0 0 0 0 1025.0 1024.9 0.0
31/08:00am 8.1 7.6 8.0 99 0.0 CALM 0 0 0 0 1024.7 1024.6 0.0
31/07:30am 7.2 6.5 7.1 99 0.0 CALM 0 0 0 0 1024.6 1024.5 0.0
31/07:00am 6.7 5.5 6.6 99 0.0 SSE 2 4 1 2 1024.4 1024.3 0.0
31/06:30am 6.4 5.6 6.3 99 0.0 CALM 0 0 0 0 1023.3 1023.2 0.0
31/06:00am 6.5 5.3 6.4 99 0.0 N 2 4 1 2 1023.5 1023.4 0.0
31/05:30am 6.3 5.4 6.2 99 0.0 CALM 0 0 0 0 1023.5 1023.4 0.0
31/05:00am 6.3 5.4 6.0 98 0.1 CALM 0 0 0 0 1023.9 1023.8 0.0
31/04:30am 6.5 5.6 6.2 98 0.1 CALM 0 0 0 0 1023.8 1023.7 0.0
31/04:00am 6.5 5.6 6.2 98 0.1 CALM 0 0 0 0 1023.5 1023.4 0.0
31/03:30am 6.7 5.9 6.4 98 0.1 CALM 0 0 0 0 1023.5 1023.4 0.0
31/03:00am 6.9 6.1 6.6 98 0.1 CALM 0 0 0 0 1023.5 1023.4 0.0
31/02:30am 7.1 6.4 6.8 98 0.1 CALM 0 0 0 0 1023.6 1023.5 0.0
31/02:00am 7.2 6.5 6.9 98 0.1 CALM 0 0 0 0 1023.9 1023.8 0.0
31/01:30am 7.3 6.6 7.0 98 0.1 CALM 0 2 0 1 1024.0 1023.9 0.0
31/01:00am 7.3 6.6 6.9 97 0.2 CALM 0 0 0 0 1024.4 1024.3 0.0
31/12:30am 7.5 6.8 6.9 96 0.3 CALM 0 0 0 0 1024.6 1024.5 0.0
31/12:00am 7.9 7.3 7.3 96 0.3 CALM 0 0 0 0 1024.6 1024.5 0.0
 
Date/Time
EST
Tmp

°C
App
Tmp
°C
Dew
Point
°C
Rel
Hum
%
Delta-T

°C
Wind Press
QNH
hPa
Press
MSL
hPa
Rain
since
9 am
mm
Dir
 
Spd
km/h
Gust
km/h
Spd
kts
Gust
kts
30/11:30pm 8.8 8.3 8.0 95 0.4 CALM 0 0 0 0 1024.9 1024.8 0.0
30/11:00pm 8.9 8.5 8.1 95 0.4 CALM 0 0 0 0 1025.0 1024.9 0.0
30/10:30pm 9.7 9.5 9.1 96 0.3 CALM 0 2 0 1 1025.3 1025.2 0.0
30/10:00pm 9.4 9.0 8.3 93 0.5 CALM 0 0 0 0 1025.2 1025.1 0.0
30/09:30pm 10.4 9.6 9.6 95 0.4 N 4 6 2 3 1025.3 1025.2 0.0
30/09:00pm 10.6 10.4 9.2 91 0.7 CALM 0 0 0 0 1025.2 1025.1 0.0
30/08:30pm 11.8 12.0 10.4 91 0.7 CALM 0 0 0 0 1025.3 1025.2 0.0
30/08:00pm 12.2 12.0 10.4 89 0.9 WSW 2 2 1 1 1025.0 1024.9 0.0
30/07:30pm 12.8 12.6 10.3 85 1.3 N 2 2 1 1 1024.8 1024.7 0.0
30/07:00pm 14.4 14.7 11.0 80 1.8 CALM 0 2 0 1 1024.7 1024.6 0.0
30/06:30pm 15.3 15.7 11.1 76 2.2 CALM 0 2 0 1 1024.8 1024.7 0.0
30/06:00pm 17.1 16.6 10.9 67 3.3 E 4 7 2 4 1024.5 1024.4 0.0
30/05:30pm 18.1 17.2 11.2 64 3.8 E 7 11 4 6 1024.2 1024.1 0.0
30/05:00pm 19.1 17.7 10.9 59 4.4 E 9 15 5 8 1023.8 1023.7 0.0
30/04:30pm 20.2 18.7 10.6 54 5.2 E 9 17 5 9 1023.4 1023.3 0.0
30/04:00pm 20.8 19.2 10.3 51 5.7 E 9 17 5 9 1023.4 1023.3 0.0
30/03:30pm 20.2 19.0 9.7 51 5.6 E 6 9 3 5 1023.7 1023.6 0.0
30/03:00pm 20.5 19.1 9.7 50 5.8 SE 7 11 4 6 1023.8 1023.7 0.0
30/02:30pm 20.9 19.9 8.9 46 6.4 ESE 4 6 2 3 1023.9 1023.8 0.0
30/02:00pm 22.8 21.9 10.6 46 6.7 ESE 6 13 3 7 1024.1 1024.0 0.0
30/01:30pm 21.6 20.5 10.1 48 6.3 SSE 6 9 3 5 1024.6 1024.5 0.0
30/01:00pm 21.5 20.7 9.7 47 6.3 ENE 4 9 2 5 1024.9 1024.8 0.0
30/12:30pm 21.5 20.5 10.9 51 5.8 SSE 7 11 4 6 1025.4 1025.4 0.0
30/12:00pm 20.6 19.6 10.4 52 5.5 SSE 6 11 3 6 1026.1 1026.1 0.0
30/11:30am 20.1 19.0 10.5 54 5.2 SE 7 13 4 7 1026.8 1026.8 0.0
30/11:00am 19.7 18.9 10.9 57 4.8 SE 6 9 3 5 1027.2 1027.2 0.0
30/10:30am 18.8 17.8 11.1 61 4.2 SSE 7 13 4 7 1027.5 1027.5 0.0
30/10:00am 16.8 16.1 10.2 65 3.5 ESE 4 7 2 4 1027.9 1027.9 0.0
30/09:30am 14.4 14.4 9.8 74 2.4 CALM 0 4 0 2 1028.0 1028.0 0.0
30/09:00am 11.4 11.3 9.5 88 1.0 CALM 0 0 0 0 1028.2 1028.2 0.0
30/08:30am 9.9 9.6 8.5 91 0.7 CALM 0 0 0 0 1028.1 1028.1 0.0
30/08:00am 7.5 6.9 7.4 99 0.0 CALM 0 0 0 0 1027.9 1027.9 0.0
30/07:30am 5.2 4.1 5.1 99 0.0 CALM 0 0 0 0 1027.9 1027.9 0.0
30/07:00am 3.8 2.4 3.5 98 0.1 CALM 0 0 0 0 1027.6 1027.6 0.0
30/06:30am 4.0 2.6 3.7 98 0.1 CALM 0 0 0 0 1027.5 1027.5 0.0
30/06:00am 4.1 2.7 3.8 98 0.1 CALM 0 0 0 0 1027.4 1027.4 0.0
30/05:30am 4.2 2.9 3.9 98 0.1 CALM 0 0 0 0 1027.2 1027.2 0.0
30/05:00am 4.3 3.0 4.0 98 0.1 CALM 0 0 0 0 1026.9 1026.9 0.0
30/04:30am 4.3 3.0 3.9 97 0.2 CALM 0 0 0 0 1027.0 1027.0 0.0
30/04:00am 4.3 3.0 3.9 97 0.2 CALM 0 0 0 0 1027.4 1027.4 0.0
30/03:30am 4.8 3.6 4.4 97 0.2 CALM 0 0 0 0 1027.5 1027.5 0.0
30/03:00am 5.4 4.3 5.1 98 0.1 CALM 0 0 0 0 1027.4 1027.4 0.0
30/02:30am 5.3 4.2 4.9 97 0.2 CALM 0 0 0 0 1027.9 1027.9 0.0
30/02:00am 5.8 4.8 5.4 97 0.2 CALM 0 0 0 0 1027.8 1027.8 0.0
30/01:30am 6.3 5.4 5.9 97 0.2 CALM 0 0 0 0 1028.1 1028.1 0.0
30/01:00am 6.7 5.5 6.4 98 0.1 E 2 4 1 2 1028.2 1028.2 0.0
30/12:30am 6.6 5.7 6.0 96 0.3 CALM 0 0 0 0 1028.9 1028.9 0.0
30/12:00am 7.3 6.5 6.6 95 0.3 CALM 0 0 0 0 1029.4 1029.4 0.0

Latest Capital City Observations: Canberra | Sydney | Melbourne | Brisbane | Adelaide | Perth | Hobart | Darwin

Other Formats:

Comma delimited format used in spreadsheet applications
http://www.bom.gov.au/fwo/IDQ60901/IDQ60901.94566.axf

JavaScript Object Notation format (JSON) in row-major order
http://www.bom.gov.au/fwo/IDQ60901/IDQ60901.94566.json